sensor_id;sensor_type;location;lat;lon;timestamp;pressure;altitude;pressure_sealevel;temperature;humidity
18509;BME280;9383;50.928;12.116;2023-04-23T00:01:05;98052.88;;;13.46;75.75
18509;BME280;9383;50.928;12.116;2023-04-23T00:03:35;98054.56;;;13.47;75.56
18509;BME280;9383;50.928;12.116;2023-04-23T00:06:06;98055.53;;;13.46;75.69
18509;BME280;9383;50.928;12.116;2023-04-23T00:08:34;98053.81;;;13.45;76.20
18509;BME280;9383;50.928;12.116;2023-04-23T00:11:01;98074.16;;;13.46;78.95
18509;BME280;9383;50.928;12.116;2023-04-23T00:13:28;98063.50;;;13.46;79.20
18509;BME280;9383;50.928;12.116;2023-04-23T00:15:55;98064.50;;;13.43;78.95
18509;BME280;9383;50.928;12.116;2023-04-23T00:18:22;98061.19;;;13.40;78.90
18509;BME280;9383;50.928;12.116;2023-04-23T00:20:50;98059.59;;;13.37;79.07
18509;BME280;9383;50.928;12.116;2023-04-23T00:23:17;98050.84;;;13.35;79.05
18509;BME280;9383;50.928;12.116;2023-04-23T00:25:44;98049.97;;;13.34;78.84
18509;BME280;9383;50.928;12.116;2023-04-23T00:28:11;98052.72;;;13.33;78.51
18509;BME280;9383;50.928;12.116;2023-04-23T00:30:39;98043.00;;;13.32;79.18
18509;BME280;9383;50.928;12.116;2023-04-23T00:33:09;98050.16;;;13.31;79.59
18509;BME280;9383;50.928;12.116;2023-04-23T00:35:36;98055.56;;;13.30;79.75
18509;BME280;9383;50.928;12.116;2023-04-23T00:38:03;98049.41;;;13.29;79.70
18509;BME280;9383;50.928;12.116;2023-04-23T00:40:30;98044.16;;;13.28;79.53
18509;BME280;9383;50.928;12.116;2023-04-23T00:42:56;98041.59;;;13.26;79.64
18509;BME280;9383;50.928;12.116;2023-04-23T00:45:23;98046.06;;;13.26;79.98
18509;BME280;9383;50.928;12.116;2023-04-23T00:47:50;98044.34;;;13.25;80.38
18509;BME280;9383;50.928;12.116;2023-04-23T00:50:19;98043.59;;;13.22;80.55
18509;BME280;9383;50.928;12.116;2023-04-23T00:52:48;98039.22;;;13.21;80.55
18509;BME280;9383;50.928;12.116;2023-04-23T00:55:15;98038.34;;;13.21;80.72
18509;BME280;9383;50.928;12.116;2023-04-23T00:57:43;98034.81;;;13.20;81.11
18509;BME280;9383;50.928;12.116;2023-04-23T01:00:10;98029.63;;;13.19;80.96
18509;BME280;9383;50.928;12.116;2023-04-23T01:02:39;98027.03;;;13.17;81.01
18509;BME280;9383;50.928;12.116;2023-04-23T01:05:08;98026.28;;;13.15;81.45
18509;BME280;9383;50.928;12.116;2023-04-23T01:07:36;98018.38;;;13.14;81.55
18509;BME280;9383;50.928;12.116;2023-04-23T01:10:04;98020.19;;;13.13;81.63
18509;BME280;9383;50.928;12.116;2023-04-23T01:12:32;98013.16;;;13.12;81.85
18509;BME280;9383;50.928;12.116;2023-04-23T01:14:59;98017.63;;;13.12;81.76
18509;BME280;9383;50.928;12.116;2023-04-23T01:17:26;98019.53;;;13.09;81.83
18509;BME280;9383;50.928;12.116;2023-04-23T01:19:53;98017.81;;;13.08;83.01
18509;BME280;9383;50.928;12.116;2023-04-23T01:22:20;98015.22;;;13.07;83.34
18509;BME280;9383;50.928;12.116;2023-04-23T01:24:47;98020.53;;;13.07;83.59
18509;BME280;9383;50.928;12.116;2023-04-23T01:27:14;98015.34;;;13.05;83.92
18509;BME280;9383;50.928;12.116;2023-04-23T01:29:41;98012.75;;;13.04;84.89
18509;BME280;9383;50.928;12.116;2023-04-23T01:32:10;98008.38;;;13.03;84.59
18509;BME280;9383;50.928;12.116;2023-04-23T01:34:37;98014.66;;;13.02;83.88
18509;BME280;9383;50.928;12.116;2023-04-23T01:37:04;98003.25;;;13.00;84.13
18509;BME280;9383;50.928;12.116;2023-04-23T01:39:31;98002.31;;;13.01;83.72
18509;BME280;9383;50.928;12.116;2023-04-23T01:42:04;98010.47;;;12.98;83.41
18509;BME280;9383;50.928;12.116;2023-04-23T01:44:32;97997.25;;;12.96;83.77
18509;BME280;9383;50.928;12.116;2023-04-23T01:46:59;98006.19;;;12.95;83.95
18509;BME280;9383;50.928;12.116;2023-04-23T01:49:26;97999.16;;;12.94;84.38
18509;BME280;9383;50.928;12.116;2023-04-23T01:51:52;97997.47;;;12.93;84.40
18509;BME280;9383;50.928;12.116;2023-04-23T01:54:20;97999.34;;;12.91;84.37
18509;BME280;9383;50.928;12.116;2023-04-23T01:56:47;97998.50;;;12.90;84.32
18509;BME280;9383;50.928;12.116;2023-04-23T01:59:15;97994.19;;;12.88;84.13
18509;BME280;9383;50.928;12.116;2023-04-23T02:01:46;97996.84;;;12.88;84.16
18509;BME280;9383;50.928;12.116;2023-04-23T02:04:14;98001.41;;;12.86;83.70
18509;BME280;9383;50.928;12.116;2023-04-23T02:06:43;97996.97;;;12.86;83.96
18509;BME280;9383;50.928;12.116;2023-04-23T02:09:12;97991.72;;;12.85;83.83
18509;BME280;9383;50.928;12.116;2023-04-23T02:11:39;97999.72;;;12.85;84.04
18509;BME280;9383;50.928;12.116;2023-04-23T02:14:07;97987.28;;;12.85;84.36
18509;BME280;9383;50.928;12.116;2023-04-23T02:16:35;97999.72;;;12.85;84.21
18509;BME280;9383;50.928;12.116;2023-04-23T02:19:02;97986.41;;;12.85;84.18
18509;BME280;9383;50.928;12.116;2023-04-23T02:21:29;97993.56;;;12.84;84.30
18509;BME280;9383;50.928;12.116;2023-04-23T02:23:56;97995.41;;;12.82;84.54
18509;BME280;9383;50.928;12.116;2023-04-23T02:26:23;97997.25;;;12.82;84.75
18509;BME280;9383;50.928;12.116;2023-04-23T02:28:50;98000.84;;;12.80;84.75
18509;BME280;9383;50.928;12.116;2023-04-23T02:31:18;97991.16;;;12.79;85.07
18509;BME280;9383;50.928;12.116;2023-04-23T02:33:46;97988.50;;;12.79;84.68
18509;BME280;9383;50.928;12.116;2023-04-23T02:36:13;97991.16;;;12.79;84.85
18509;BME280;9383;50.928;12.116;2023-04-23T02:38:40;97987.56;;;12.80;85.39
18509;BME280;9383;50.928;12.116;2023-04-23T02:41:11;97984.69;;;12.84;85.72
18509;BME280;9383;50.928;12.116;2023-04-23T02:43:37;97982.72;;;12.87;86.14
18509;BME280;9383;50.928;12.116;2023-04-23T02:46:04;97972.84;;;12.89;86.16
18509;BME280;9383;50.928;12.116;2023-04-23T02:48:39;97979.78;;;12.92;86.33
18509;BME280;9383;50.928;12.116;2023-04-23T02:51:10;97969.91;;;12.94;86.37
18509;BME280;9383;50.928;12.116;2023-04-23T02:53:37;97968.94;;;12.95;87.00
18509;BME280;9383;50.928;12.116;2023-04-23T02:56:04;97974.19;;;12.97;87.53
18509;BME280;9383;50.928;12.116;2023-04-23T02:58:31;97960.91;;;12.97;87.63
18509;BME280;9383;50.928;12.116;2023-04-23T03:00:58;97971.41;;;12.98;87.96
18509;BME280;9383;50.928;12.116;2023-04-23T03:03:26;97975.78;;;12.99;87.85
18509;BME280;9383;50.928;12.116;2023-04-23T03:05:57;97974.94;;;12.99;88.12
18509;BME280;9383;50.928;12.116;2023-04-23T03:08:24;97972.19;;;13.00;88.73
18509;BME280;9383;50.928;12.116;2023-04-23T03:10:53;97975.63;;;13.02;89.11
18509;BME280;9383;50.928;12.116;2023-04-23T03:13:20;97980.84;;;13.04;89.27
18509;BME280;9383;50.928;12.116;2023-04-23T03:15:47;97978.19;;;13.04;89.34
18509;BME280;9383;50.928;12.116;2023-04-23T03:18:14;97972.78;;;13.05;89.26
18509;BME280;9383;50.928;12.116;2023-04-23T03:20:41;97971.81;;;13.06;89.29
18509;BME280;9383;50.928;12.116;2023-04-23T03:23:16;97976.09;;;13.09;89.48
18509;BME280;9383;50.928;12.116;2023-04-23T03:26:00;97976.94;;;13.09;89.51
18509;BME280;9383;50.928;12.116;2023-04-23T03:28:26;97975.03;;;13.12;89.88
18509;BME280;9383;50.928;12.116;2023-04-23T03:30:53;97977.63;;;13.13;89.90
18509;BME280;9383;50.928;12.116;2023-04-23T03:33:20;97981.03;;;13.15;90.22
18509;BME280;9383;50.928;12.116;2023-04-23T03:35:47;97978.28;;;13.17;90.03
18509;BME280;9383;50.928;12.116;2023-04-23T03:38:13;97976.47;;;13.17;89.99
18509;BME280;9383;50.928;12.116;2023-04-23T03:40:40;97972.97;;;13.17;89.81
18509;BME280;9383;50.928;12.116;2023-04-23T03:43:07;97974.69;;;13.18;89.50
18509;BME280;9383;50.928;12.116;2023-04-23T03:45:36;97977.34;;;13.18;89.49
18509;BME280;9383;50.928;12.116;2023-04-23T03:48:03;97980.00;;;13.18;89.94
18509;BME280;9383;50.928;12.116;2023-04-23T03:50:30;97980.00;;;13.18;90.16
18509;BME280;9383;50.928;12.116;2023-04-23T03:53:04;97986.28;;;13.17;90.01
18509;BME280;9383;50.928;12.116;2023-04-23T03:55:31;97988.94;;;13.17;89.80
18509;BME280;9383;50.928;12.116;2023-04-23T03:58:01;97987.22;;;13.16;89.93
18509;BME280;9383;50.928;12.116;2023-04-23T04:00:28;97987.22;;;13.16;89.87
18509;BME280;9383;50.928;12.116;2023-04-23T04:02:54;97979.25;;;13.16;89.66
18509;BME280;9383;50.928;12.116;2023-04-23T04:05:22;97986.44;;;13.14;89.41
18509;BME280;9383;50.928;12.116;2023-04-23T04:07:48;97985.53;;;13.15;89.18
18509;BME280;9383;50.928;12.116;2023-04-23T04:10:15;97989.09;;;13.14;88.87
18509;BME280;9383;50.928;12.116;2023-04-23T04:12:42;97994.44;;;13.14;89.18
18509;BME280;9383;50.928;12.116;2023-04-23T04:15:11;97989.09;;;13.14;88.88
18509;BME280;9383;50.928;12.116;2023-04-23T04:17:37;97993.66;;;13.12;88.87
18509;BME280;9383;50.928;12.116;2023-04-23T04:20:05;97997.28;;;13.11;88.54
18509;BME280;9383;50.928;12.116;2023-04-23T04:22:33;98003.63;;;13.08;88.35
18509;BME280;9383;50.928;12.116;2023-04-23T04:25:00;98003.75;;;13.06;88.50
18509;BME280;9383;50.928;12.116;2023-04-23T04:27:27;97998.50;;;13.05;88.63
18509;BME280;9383;50.928;12.116;2023-04-23T04:29:54;98000.34;;;13.04;88.60
18509;BME280;9383;50.928;12.116;2023-04-23T04:32:21;98019.03;;;13.03;88.85
18509;BME280;9383;50.928;12.116;2023-04-23T04:34:49;98005.81;;;13.01;88.57
18509;BME280;9383;50.928;12.116;2023-04-23T04:37:16;98013.78;;;13.01;89.28
18509;BME280;9383;50.928;12.116;2023-04-23T04:39:43;98013.91;;;13.00;89.72
18509;BME280;9383;50.928;12.116;2023-04-23T04:42:09;98017.41;;;13.00;89.66
18509;BME280;9383;50.928;12.116;2023-04-23T04:44:38;98019.22;;;13.00;89.45
18509;BME280;9383;50.928;12.116;2023-04-23T04:47:05;98014.84;;;12.99;89.50
18509;BME280;9383;50.928;12.116;2023-04-23T04:49:33;98002.50;;;12.98;89.16
18509;BME280;9383;50.928;12.116;2023-04-23T04:52:00;98013.97;;;12.98;89.30
18509;BME280;9383;50.928;12.116;2023-04-23T04:54:28;98019.31;;;12.98;89.83
18509;BME280;9383;50.928;12.116;2023-04-23T04:56:55;98029.09;;;12.98;90.84
18509;BME280;9383;50.928;12.116;2023-04-23T04:59:22;98023.66;;;12.99;91.39
18509;BME280;9383;50.928;12.116;2023-04-23T05:01:48;98020.16;;;12.99;91.83
18509;BME280;9383;50.928;12.116;2023-04-23T05:04:15;98019.22;;;13.00;91.91
18509;BME280;9383;50.928;12.116;2023-04-23T05:06:42;98020.94;;;13.01;91.66
18509;BME280;9383;50.928;12.116;2023-04-23T05:09:10;98023.50;;;13.02;91.58
18509;BME280;9383;50.928;12.116;2023-04-23T05:11:37;98035.88;;;13.03;91.59
18509;BME280;9383;50.928;12.116;2023-04-23T05:14:03;98025.13;;;13.05;91.82
18509;BME280;9383;50.928;12.116;2023-04-23T05:16:30;98030.34;;;13.06;91.95
18509;BME280;9383;50.928;12.116;2023-04-23T05:18:56;98035.69;;;13.06;92.09
18509;BME280;9383;50.928;12.116;2023-04-23T05:21:24;98032.81;;;13.09;92.68
18509;BME280;9383;50.928;12.116;2023-04-23T05:23:53;98035.28;;;13.13;92.97
18509;BME280;9383;50.928;12.116;2023-04-23T05:26:20;98037.00;;;13.14;93.30
18509;BME280;9383;50.928;12.116;2023-04-23T05:28:47;98038.75;;;13.15;93.88
18509;BME280;9383;50.928;12.116;2023-04-23T05:31:15;98037.69;;;13.17;94.16
18509;BME280;9383;50.928;12.116;2023-04-23T05:33:41;98040.25;;;13.19;95.58
18509;BME280;9383;50.928;12.116;2023-04-23T05:36:10;98037.47;;;13.20;95.89
18509;BME280;9383;50.928;12.116;2023-04-23T05:38:38;98033.78;;;13.23;95.67
18509;BME280;9383;50.928;12.116;2023-04-23T05:41:04;98038.09;;;13.26;95.39
18509;BME280;9383;50.928;12.116;2023-04-23T05:43:31;98038.75;;;13.29;95.11
18509;BME280;9383;50.928;12.116;2023-04-23T05:45:58;98042.19;;;13.31;95.31
18509;BME280;9383;50.928;12.116;2023-04-23T05:48:24;98045.59;;;13.33;95.54
18509;BME280;9383;50.928;12.116;2023-04-23T05:50:51;98038.38;;;13.35;95.74
18509;BME280;9383;50.928;12.116;2023-04-23T05:53:18;98056.81;;;13.39;96.60
18509;BME280;9383;50.928;12.116;2023-04-23T05:55:44;98053.03;;;13.43;96.41
18509;BME280;9383;50.928;12.116;2023-04-23T05:58:11;98053.81;;;13.45;96.41
18509;BME280;9383;50.928;12.116;2023-04-23T06:00:38;98059.91;;;13.47;96.78
18509;BME280;9383;50.928;12.116;2023-04-23T06:03:06;98061.53;;;13.49;96.46
18509;BME280;9383;50.928;12.116;2023-04-23T06:05:34;98057.81;;;13.52;96.27
18509;BME280;9383;50.928;12.116;2023-04-23T06:08:03;98056.75;;;13.55;95.63
18509;BME280;9383;50.928;12.116;2023-04-23T06:10:30;98059.16;;;13.59;95.32
18509;BME280;9383;50.928;12.116;2023-04-23T06:12:56;98060.66;;;13.63;95.04
18509;BME280;9383;50.928;12.116;2023-04-23T06:15:23;98065.81;;;13.67;95.10
18509;BME280;9383;50.928;12.116;2023-04-23T06:17:53;98067.41;;;13.69;94.97
18509;BME280;9383;50.928;12.116;2023-04-23T06:20:20;98064.47;;;13.74;94.71
18509;BME280;9383;50.928;12.116;2023-04-23T06:22:47;98059.81;;;13.77;94.61
18509;BME280;9383;50.928;12.116;2023-04-23T06:25:14;98061.25;;;13.83;94.35
18509;BME280;9383;50.928;12.116;2023-04-23T06:27:44;98063.63;;;13.88;94.32
18509;BME280;9383;50.928;12.116;2023-04-23T06:30:12;98060.00;;;13.89;93.98
18509;BME280;9383;50.928;12.116;2023-04-23T06:32:38;98060.56;;;13.94;93.30
18509;BME280;9383;50.928;12.116;2023-04-23T06:35:06;98060.47;;;13.96;92.13
18509;BME280;9383;50.928;12.116;2023-04-23T06:37:33;98064.56;;;14.01;91.81
18509;BME280;9383;50.928;12.116;2023-04-23T06:40:00;98061.47;;;14.07;92.00
18509;BME280;9383;50.928;12.116;2023-04-23T06:42:26;98072.59;;;14.14;91.88
18509;BME280;9383;50.928;12.116;2023-04-23T06:44:53;98081.28;;;14.18;90.96
18509;BME280;9383;50.928;12.116;2023-04-23T06:47:20;98067.84;;;14.19;90.24
18509;BME280;9383;50.928;12.116;2023-04-23T06:49:47;98067.66;;;14.23;89.97
18509;BME280;9383;50.928;12.116;2023-04-23T06:52:15;98065.75;;;14.25;89.33
18509;BME280;9383;50.928;12.116;2023-04-23T06:54:42;98066.50;;;14.27;89.76
18509;BME280;9383;50.928;12.116;2023-04-23T06:57:09;98061.75;;;14.32;89.72
18509;BME280;9383;50.928;12.116;2023-04-23T06:59:35;98063.03;;;14.39;89.69
18509;BME280;9383;50.928;12.116;2023-04-23T07:02:02;98062.53;;;14.47;90.14
18509;BME280;9383;50.928;12.116;2023-04-23T07:04:29;98058.81;;;14.49;89.01
18509;BME280;9383;50.928;12.116;2023-04-23T07:06:56;98060.13;;;14.57;88.69
18509;BME280;9383;50.928;12.116;2023-04-23T07:09:25;98059.50;;;14.66;88.62
18509;BME280;9383;50.928;12.116;2023-04-23T07:11:52;98059.16;;;14.72;88.14
18509;BME280;9383;50.928;12.116;2023-04-23T07:14:19;98067.50;;;14.81;87.53
18509;BME280;9383;50.928;12.116;2023-04-23T07:16:48;98060.91;;;14.86;86.50
18509;BME280;9383;50.928;12.116;2023-04-23T07:19:14;98057.91;;;14.91;85.50
18509;BME280;9383;50.928;12.116;2023-04-23T07:21:41;98061.97;;;14.97;85.53
18509;BME280;9383;50.928;12.116;2023-04-23T07:24:09;98056.63;;;14.97;84.48
18509;BME280;9383;50.928;12.116;2023-04-23T07:26:36;98008.66;;;14.69;84.84
18509;BME280;9383;50.928;12.116;2023-04-23T07:29:04;98063.50;;;15.14;85.26
18509;BME280;9383;50.928;12.116;2023-04-23T07:31:33;98064.69;;;15.23;85.00
18509;BME280;9383;50.928;12.116;2023-04-23T07:34:00;98069.31;;;15.33;84.92
18509;BME280;9383;50.928;12.116;2023-04-23T07:36:28;98067.81;;;15.42;84.34
18509;BME280;9383;50.928;12.116;2023-04-23T07:38:57;98080.41;;;15.53;84.00
18509;BME280;9383;50.928;12.116;2023-04-23T07:41:24;98005.53;;;15.16;82.70
18509;BME280;9383;50.928;12.116;2023-04-23T07:43:50;98064.94;;;15.58;81.52
18509;BME280;9383;50.928;12.116;2023-04-23T07:46:18;98080.00;;;15.59;81.25
18509;BME280;9383;50.928;12.116;2023-04-23T07:48:46;98087.78;;;15.63;81.04
18509;BME280;9383;50.928;12.116;2023-04-23T07:51:13;98115.25;;;15.65;81.08
18509;BME280;9383;50.928;12.116;2023-04-23T07:53:39;98123.38;;;15.50;78.38
18509;BME280;9383;50.928;12.116;2023-04-23T07:56:10;98125.78;;;15.27;75.32
18509;BME280;9383;50.928;12.116;2023-04-23T07:58:38;98134.19;;;15.08;74.90
18509;BME280;9383;50.928;12.116;2023-04-23T08:01:05;98134.53;;;14.89;75.31
18509;BME280;9383;50.928;12.116;2023-04-23T08:03:32;98132.69;;;14.76;75.93
18509;BME280;9383;50.928;12.116;2023-04-23T08:05:59;98139.28;;;14.56;75.88
18509;BME280;9383;50.928;12.116;2023-04-23T08:08:26;98136.44;;;14.45;76.39
18509;BME280;9383;50.928;12.116;2023-04-23T08:10:53;98140.00;;;14.31;76.95
18509;BME280;9383;50.928;12.116;2023-04-23T08:13:19;98142.38;;;14.21;76.98
18509;BME280;9383;50.928;12.116;2023-04-23T08:15:46;98148.19;;;14.13;77.47
18509;BME280;9383;50.928;12.116;2023-04-23T08:18:33;98151.44;;;14.04;77.88
18509;BME280;9383;50.928;12.116;2023-04-23T08:21:01;98152.69;;;13.98;77.85
18509;BME280;9383;50.928;12.116;2023-04-23T08:23:27;98155.63;;;13.93;78.23
18509;BME280;9383;50.928;12.116;2023-04-23T08:25:54;98162.28;;;13.86;77.96
18509;BME280;9383;50.928;12.116;2023-04-23T08:28:20;98168.25;;;13.75;77.25
18509;BME280;9383;50.928;12.116;2023-04-23T08:30:47;98170.44;;;13.69;77.51
18509;BME280;9383;50.928;12.116;2023-04-23T08:33:15;98176.03;;;13.64;77.97
18509;BME280;9383;50.928;12.116;2023-04-23T08:35:41;98171.00;;;13.59;78.42
18509;BME280;9383;50.928;12.116;2023-04-23T08:38:09;98161.47;;;13.55;79.46
18509;BME280;9383;50.928;12.116;2023-04-23T08:40:36;98173.34;;;13.49;79.99
18509;BME280;9383;50.928;12.116;2023-04-23T08:43:15;98172.75;;;13.44;80.86
18509;BME280;9383;50.928;12.116;2023-04-23T08:45:47;98179.25;;;13.39;81.56
18509;BME280;9383;50.928;12.116;2023-04-23T08:48:14;98175.00;;;13.36;81.51
18509;BME280;9383;50.928;12.116;2023-04-23T08:50:44;98172.41;;;13.34;81.83
18509;BME280;9383;50.928;12.116;2023-04-23T08:53:17;98179.63;;;13.32;82.28
18509;BME280;9383;50.928;12.116;2023-04-23T08:55:44;98174.66;;;13.26;82.47
18509;BME280;9383;50.928;12.116;2023-04-23T08:58:12;98179.66;;;13.16;81.56
18509;BME280;9383;50.928;12.116;2023-04-23T09:00:39;98191.19;;;13.17;81.51
18509;BME280;9383;50.928;12.116;2023-04-23T09:03:26;98183.28;;;13.15;82.89
18509;BME280;9383;50.928;12.116;2023-04-23T09:05:56;98184.16;;;13.16;83.16
18509;BME280;9383;50.928;12.116;2023-04-23T09:08:24;98175.22;;;13.17;83.50
18509;BME280;9383;50.928;12.116;2023-04-23T09:10:51;98176.94;;;13.18;83.74
18509;BME280;9383;50.928;12.116;2023-04-23T09:13:22;98176.94;;;13.18;83.35
18509;BME280;9383;50.928;12.116;2023-04-23T09:15:49;98179.47;;;13.19;83.44
18509;BME280;9383;50.928;12.116;2023-04-23T09:18:16;98178.47;;;13.22;84.49
18509;BME280;9383;50.928;12.116;2023-04-23T09:20:45;98172.94;;;13.25;86.12
18509;BME280;9383;50.928;12.116;2023-04-23T09:23:20;98166.25;;;13.34;85.74
18509;BME280;9383;50.928;12.116;2023-04-23T09:25:47;98167.34;;;13.46;85.76
18509;BME280;9383;50.928;12.116;2023-04-23T09:28:37;98158.69;;;13.57;85.49
18509;BME280;9383;50.928;12.116;2023-04-23T09:31:04;98155.31;;;13.69;85.98
18509;BME280;9383;50.928;12.116;2023-04-23T09:33:35;98156.09;;;13.86;86.67
18509;BME280;9383;50.928;12.116;2023-04-23T09:36:09;98158.97;;;13.97;85.21
18509;BME280;9383;50.928;12.116;2023-04-23T09:38:40;98148.84;;;14.17;85.47
18509;BME280;9383;50.928;12.116;2023-04-23T09:41:27;98143.31;;;14.34;84.01
18509;BME280;9383;50.928;12.116;2023-04-23T09:43:56;98137.41;;;14.44;81.05
18509;BME280;9383;50.928;12.116;2023-04-23T09:46:36;98072.81;;;14.11;78.18
18509;BME280;9383;50.928;12.116;2023-04-23T09:49:04;98141.75;;;14.59;76.12
18509;BME280;9383;50.928;12.116;2023-04-23T09:51:51;98143.94;;;14.67;75.37
18509;BME280;9383;50.928;12.116;2023-04-23T09:54:20;98140.88;;;14.73;75.39
18509;BME280;9383;50.928;12.116;2023-04-23T09:56:52;98145.88;;;14.93;75.57
18509;BME280;9383;50.928;12.116;2023-04-23T09:59:27;98145.50;;;15.12;73.21
18509;BME280;9383;50.928;12.116;2023-04-23T10:01:54;98139.88;;;15.29;73.86
18509;BME280;9383;50.928;12.116;2023-04-23T10:04:22;98138.13;;;15.43;72.92
18509;BME280;9383;50.928;12.116;2023-04-23T10:06:57;98130.44;;;15.64;73.87
18509;BME280;9383;50.928;12.116;2023-04-23T10:09:26;98131.81;;;15.83;72.16
18509;BME280;9383;50.928;12.116;2023-04-23T10:11:58;98124.03;;;16.06;72.25
18509;BME280;9383;50.928;12.116;2023-04-23T10:14:26;98127.31;;;16.35;73.52
18509;BME280;9383;50.928;12.116;2023-04-23T10:16:58;98131.88;;;16.46;64.17
18509;BME280;9383;50.928;12.116;2023-04-23T10:19:27;98128.63;;;16.54;62.60
18509;BME280;9383;50.928;12.116;2023-04-23T10:21:58;98129.19;;;16.59;63.22
18509;BME280;9383;50.928;12.116;2023-04-23T10:24:28;98123.66;;;16.73;65.17
18509;BME280;9383;50.928;12.116;2023-04-23T10:27:01;98122.22;;;16.81;61.67
18509;BME280;9383;50.928;12.116;2023-04-23T10:29:30;98116.09;;;16.92;61.04
18509;BME280;9383;50.928;12.116;2023-04-23T10:32:02;98110.69;;;17.05;62.10
18509;BME280;9383;50.928;12.116;2023-04-23T10:34:30;98109.56;;;17.20;59.23
18509;BME280;9383;50.928;12.116;2023-04-23T10:36:58;98116.75;;;17.31;55.62
18509;BME280;9383;50.928;12.116;2023-04-23T10:39:31;98115.56;;;17.47;56.45
18509;BME280;9383;50.928;12.116;2023-04-23T10:42:00;98110.84;;;17.50;53.35
18509;BME280;9383;50.928;12.116;2023-04-23T10:44:37;98109.88;;;17.51;50.54
18509;BME280;9383;50.928;12.116;2023-04-23T10:47:04;98113.03;;;17.45;49.78
18509;BME280;9383;50.928;12.116;2023-04-23T10:49:32;98106.44;;;17.38;51.03
18509;BME280;9383;50.928;12.116;2023-04-23T10:52:09;98109.84;;;17.40;52.39
18509;BME280;9383;50.928;12.116;2023-04-23T10:54:36;98096.22;;;17.54;53.43
18509;BME280;9383;50.928;12.116;2023-04-23T10:57:04;98095.44;;;17.77;54.12
18509;BME280;9383;50.928;12.116;2023-04-23T10:59:40;98081.06;;;17.89;53.08
18509;BME280;9383;50.928;12.116;2023-04-23T11:02:09;98086.66;;;17.97;52.84
18509;BME280;9383;50.928;12.116;2023-04-23T11:04:44;98088.13;;;18.13;52.95
18509;BME280;9383;50.928;12.116;2023-04-23T11:07:12;98094.09;;;18.28;53.05
18509;BME280;9383;50.928;12.116;2023-04-23T11:09:45;98088.97;;;18.36;50.71
18509;BME280;9383;50.928;12.116;2023-04-23T11:14:57;98089.41;;;18.53;50.89
18509;BME280;9383;50.928;12.116;2023-04-23T11:20:11;98081.31;;;18.20;48.89
18509;BME280;9383;50.928;12.116;2023-04-23T11:22:45;98080.44;;;18.20;49.21
18509;BME280;9383;50.928;12.116;2023-04-23T11:25:13;98084.59;;;18.24;50.17
18509;BME280;9383;50.928;12.116;2023-04-23T11:27:44;98077.38;;;18.24;47.11
18509;BME280;9383;50.928;12.116;2023-04-23T11:30:20;98080.59;;;18.18;47.98
18509;BME280;9383;50.928;12.116;2023-04-23T11:32:49;98072.53;;;18.30;49.17
18509;BME280;9383;50.928;12.116;2023-04-23T11:35:18;98075.91;;;18.43;50.52
18509;BME280;9383;50.928;12.116;2023-04-23T11:37:46;98071.69;;;18.62;51.00
18509;BME280;9383;50.928;12.116;2023-04-23T11:40:17;98070.81;;;18.84;52.15
18509;BME280;9383;50.928;12.116;2023-04-23T11:42:49;98070.50;;;18.98;49.47
18509;BME280;9383;50.928;12.116;2023-04-23T11:45:19;98061.22;;;19.03;48.07
18509;BME280;9383;50.928;12.116;2023-04-23T11:47:48;98064.41;;;18.96;46.49
18509;BME280;9383;50.928;12.116;2023-04-23T11:50:27;98055.56;;;19.06;48.20
18509;BME280;9383;50.928;12.116;2023-04-23T11:52:55;98053.38;;;19.11;47.56
18509;BME280;9383;50.928;12.116;2023-04-23T11:55:23;98056.50;;;19.16;48.04
18509;BME280;9383;50.928;12.116;2023-04-23T11:57:51;98050.88;;;19.19;47.04
18509;BME280;9383;50.928;12.116;2023-04-23T12:00:20;98048.97;;;19.10;46.16
18509;BME280;9383;50.928;12.116;2023-04-23T12:03:00;98048.78;;;19.02;45.87
18509;BME280;9383;50.928;12.116;2023-04-23T12:05:31;98048.41;;;18.95;45.94
18509;BME280;9383;50.928;12.116;2023-04-23T12:08:15;98050.63;;;18.90;46.20
18509;BME280;9383;50.928;12.116;2023-04-23T12:10:48;98043.19;;;18.82;46.30
18509;BME280;9383;50.928;12.116;2023-04-23T12:13:22;98043.19;;;18.82;46.97
18509;BME280;9383;50.928;12.116;2023-04-23T12:15:58;98039.94;;;18.78;46.09
18509;BME280;9383;50.928;12.116;2023-04-23T12:18:38;98039.91;;;18.90;47.47
18509;BME280;9383;50.928;12.116;2023-04-23T12:21:14;98028.88;;;19.04;47.75
18509;BME280;9383;50.928;12.116;2023-04-23T12:23:42;98029.91;;;19.13;46.85
18509;BME280;9383;50.928;12.116;2023-04-23T12:26:13;98036.66;;;19.29;47.19
18509;BME280;9383;50.928;12.116;2023-04-23T12:28:46;98030.09;;;19.43;47.57
18509;BME280;9383;50.928;12.116;2023-04-23T12:31:19;98023.38;;;19.58;48.18
18509;BME280;9383;50.928;12.116;2023-04-23T12:33:46;98023.69;;;19.65;47.76
18509;BME280;9383;50.928;12.116;2023-04-23T12:36:18;98016.66;;;19.74;48.26
18509;BME280;9383;50.928;12.116;2023-04-23T12:38:45;98021.09;;;19.85;47.91
18509;BME280;9383;50.928;12.116;2023-04-23T12:41:11;98020.47;;;19.92;47.73
18509;BME280;9383;50.928;12.116;2023-04-23T12:43:38;98009.72;;;20.02;48.03
18509;BME280;9383;50.928;12.116;2023-04-23T12:46:04;98005.22;;;20.13;48.15
18509;BME280;9383;50.928;12.116;2023-04-23T12:48:31;98009.91;;;20.20;47.84
18509;BME280;9383;50.928;12.116;2023-04-23T12:50:57;98006.41;;;20.30;47.78
18509;BME280;9383;50.928;12.116;2023-04-23T12:53:27;98014.31;;;20.31;45.25
18509;BME280;9383;50.928;12.116;2023-04-23T12:55:55;98003.97;;;20.27;44.02
18509;BME280;9383;50.928;12.116;2023-04-23T12:58:21;98005.03;;;20.04;44.01
18509;BME280;9383;50.928;12.116;2023-04-23T13:00:48;97996.56;;;19.99;42.95
18509;BME280;9383;50.928;12.116;2023-04-23T13:03:15;97990.44;;;19.97;43.37
18509;BME280;9383;50.928;12.116;2023-04-23T13:05:42;97991.88;;;20.01;44.06
18509;BME280;9383;50.928;12.116;2023-04-23T13:08:09;97988.78;;;20.06;43.94
18509;BME280;9383;50.928;12.116;2023-04-23T13:10:35;97985.94;;;20.07;43.81
18509;BME280;9383;50.928;12.116;2023-04-23T13:13:02;97978.28;;;20.03;42.02